sensor_id;sensor_type;location;lat;lon;timestamp;P1;durP1;ratioP1;P2;durP2;ratioP2
80384;SDS011;69702;44.618;33.604;2023-05-10T00:01:30;9.68;;;5.78;;
80384;SDS011;69702;44.618;33.604;2023-05-10T00:03:56;10.03;;;5.50;;
80384;SDS011;69702;44.618;33.604;2023-05-10T00:06:21;7.93;;;5.40;;
80384;SDS011;69702;44.618;33.604;2023-05-10T00:08:47;8.50;;;5.57;;
80384;SDS011;69702;44.618;33.604;2023-05-10T00:11:13;8.93;;;5.30;;
80384;SDS011;69702;44.618;33.604;2023-05-10T00:13:39;9.45;;;5.65;;
80384;SDS011;69702;44.618;33.604;2023-05-10T00:16:05;8.95;;;6.28;;
80384;SDS011;69702;44.618;33.604;2023-05-10T00:18:31;10.13;;;5.77;;
80384;SDS011;69702;44.618;33.604;2023-05-10T00:20:57;8.88;;;5.80;;
80384;SDS011;69702;44.618;33.604;2023-05-10T00:23:23;10.50;;;6.40;;
80384;SDS011;69702;44.618;33.604;2023-05-10T00:25:49;9.45;;;5.82;;
80384;SDS011;69702;44.618;33.604;2023-05-10T00:28:15;12.00;;;5.80;;
80384;SDS011;69702;44.618;33.604;2023-05-10T00:30:41;8.55;;;5.95;;
80384;SDS011;69702;44.618;33.604;2023-05-10T00:33:07;9.70;;;6.43;;
80384;SDS011;69702;44.618;33.604;2023-05-10T00:35:33;9.17;;;6.27;;
80384;SDS011;69702;44.618;33.604;2023-05-10T00:37:59;10.18;;;6.25;;
80384;SDS011;69702;44.618;33.604;2023-05-10T00:40:25;10.68;;;6.20;;
80384;SDS011;69702;44.618;33.604;2023-05-10T00:42:55;10.38;;;6.32;;
80384;SDS011;69702;44.618;33.604;2023-05-10T00:45:22;11.70;;;6.25;;
80384;SDS011;69702;44.618;33.604;2023-05-10T00:47:49;10.60;;;6.20;;
80384;SDS011;69702;44.618;33.604;2023-05-10T00:50:17;11.18;;;6.53;;
80384;SDS011;69702;44.618;33.604;2023-05-10T00:52:43;9.20;;;6.18;;
80384;SDS011;69702;44.618;33.604;2023-05-10T00:55:09;10.07;;;6.57;;
80384;SDS011;69702;44.618;33.604;2023-05-10T00:57:37;11.20;;;6.22;;
80384;SDS011;69702;44.618;33.604;2023-05-10T01:00:03;9.48;;;6.18;;
80384;SDS011;69702;44.618;33.604;2023-05-10T01:02:30;10.65;;;6.25;;
80384;SDS011;69702;44.618;33.604;2023-05-10T01:04:56;11.05;;;6.00;;
80384;SDS011;69702;44.618;33.604;2023-05-10T01:07:22;11.65;;;6.22;;
80384;SDS011;69702;44.618;33.604;2023-05-10T01:09:48;11.77;;;6.95;;
80384;SDS011;69702;44.618;33.604;2023-05-10T01:12:14;10.23;;;6.65;;
80384;SDS011;69702;44.618;33.604;2023-05-10T01:14:40;11.35;;;6.97;;
80384;SDS011;69702;44.618;33.604;2023-05-10T01:17:06;10.17;;;6.20;;
80384;SDS011;69702;44.618;33.604;2023-05-10T01:19:33;10.60;;;6.60;;
80384;SDS011;69702;44.618;33.604;2023-05-10T01:33:35;13.25;;;6.90;;
80384;SDS011;69702;44.618;33.604;2023-05-10T01:36:50;12.00;;;7.22;;
80384;SDS011;69702;44.618;33.604;2023-05-10T01:41:54;10.18;;;6.60;;
80384;SDS011;69702;44.618;33.604;2023-05-10T01:44:47;10.07;;;6.40;;
80384;SDS011;69702;44.618;33.604;2023-05-10T01:50:06;14.60;;;7.05;;
80384;SDS011;69702;44.618;33.604;2023-05-10T01:52:50;10.20;;;6.50;;
80384;SDS011;69702;44.618;33.604;2023-05-10T01:55:18;12.50;;;7.00;;
80384;SDS011;69702;44.618;33.604;2023-05-10T01:57:46;12.47;;;6.93;;
80384;SDS011;69702;44.618;33.604;2023-05-10T02:00:13;13.18;;;7.75;;
80384;SDS011;69702;44.618;33.604;2023-05-10T02:02:40;12.50;;;7.32;;
80384;SDS011;69702;44.618;33.604;2023-05-10T02:05:11;12.00;;;7.50;;
80384;SDS011;69702;44.618;33.604;2023-05-10T02:07:37;14.45;;;8.20;;
80384;SDS011;69702;44.618;33.604;2023-05-10T02:10:07;15.77;;;8.10;;
80384;SDS011;69702;44.618;33.604;2023-05-10T02:12:52;13.43;;;8.02;;
80384;SDS011;69702;44.618;33.604;2023-05-10T02:15:20;13.90;;;7.88;;
80384;SDS011;69702;44.618;33.604;2023-05-10T02:17:48;14.35;;;7.95;;
80384;SDS011;69702;44.618;33.604;2023-05-10T02:20:15;15.48;;;8.30;;
80384;SDS011;69702;44.618;33.604;2023-05-10T02:22:41;15.07;;;8.20;;
80384;SDS011;69702;44.618;33.604;2023-05-10T02:25:08;13.40;;;7.93;;
80384;SDS011;69702;44.618;33.604;2023-05-10T02:27:35;13.23;;;8.63;;
80384;SDS011;69702;44.618;33.604;2023-05-10T02:30:02;13.85;;;8.25;;
80384;SDS011;69702;44.618;33.604;2023-05-10T02:32:29;14.13;;;7.88;;
80384;SDS011;69702;44.618;33.604;2023-05-10T02:34:55;17.90;;;8.13;;
80384;SDS011;69702;44.618;33.604;2023-05-10T02:37:22;13.48;;;8.02;;
80384;SDS011;69702;44.618;33.604;2023-05-10T02:39:49;13.73;;;8.07;;
80384;SDS011;69702;44.618;33.604;2023-05-10T02:42:18;13.82;;;7.63;;
80384;SDS011;69702;44.618;33.604;2023-05-10T02:44:47;12.88;;;7.93;;
80384;SDS011;69702;44.618;33.604;2023-05-10T02:47:14;15.30;;;7.77;;
80384;SDS011;69702;44.618;33.604;2023-05-10T02:49:40;13.15;;;7.45;;
80384;SDS011;69702;44.618;33.604;2023-05-10T02:52:07;14.32;;;8.35;;
80384;SDS011;69702;44.618;33.604;2023-05-10T02:54:41;14.25;;;7.63;;
80384;SDS011;69702;44.618;33.604;2023-05-10T02:57:11;13.65;;;8.00;;
80384;SDS011;69702;44.618;33.604;2023-05-10T02:59:41;15.00;;;8.13;;
80384;SDS011;69702;44.618;33.604;2023-05-10T03:02:08;15.73;;;8.30;;
80384;SDS011;69702;44.618;33.604;2023-05-10T03:04:34;12.23;;;7.32;;
80384;SDS011;69702;44.618;33.604;2023-05-10T03:07:01;16.15;;;8.32;;
80384;SDS011;69702;44.618;33.604;2023-05-10T03:09:27;14.18;;;8.05;;
80384;SDS011;69702;44.618;33.604;2023-05-10T03:17:04;13.25;;;8.27;;
80384;SDS011;69702;44.618;33.604;2023-05-10T03:22:08;19.00;;;9.10;;
80384;SDS011;69702;44.618;33.604;2023-05-10T03:24:37;13.63;;;8.05;;
80384;SDS011;69702;44.618;33.604;2023-05-10T03:27:05;14.38;;;8.88;;
80384;SDS011;69702;44.618;33.604;2023-05-10T03:29:31;15.85;;;8.90;;
80384;SDS011;69702;44.618;33.604;2023-05-10T03:31:58;13.88;;;9.10;;
80384;SDS011;69702;44.618;33.604;2023-05-10T03:34:25;13.40;;;9.18;;
80384;SDS011;69702;44.618;33.604;2023-05-10T03:36:51;19.58;;;9.07;;
80384;SDS011;69702;44.618;33.604;2023-05-10T03:39:17;14.10;;;8.77;;
80384;SDS011;69702;44.618;33.604;2023-05-10T03:41:49;15.05;;;8.35;;
80384;SDS011;69702;44.618;33.604;2023-05-10T03:44:15;17.77;;;8.00;;
80384;SDS011;69702;44.618;33.604;2023-05-10T03:46:40;15.65;;;8.27;;
80384;SDS011;69702;44.618;33.604;2023-05-10T03:49:07;13.15;;;8.38;;
80384;SDS011;69702;44.618;33.604;2023-05-10T03:51:33;13.32;;;8.38;;
80384;SDS011;69702;44.618;33.604;2023-05-10T03:53:59;12.20;;;8.57;;
80384;SDS011;69702;44.618;33.604;2023-05-10T03:56:25;15.10;;;9.60;;
80384;SDS011;69702;44.618;33.604;2023-05-10T03:58:51;12.80;;;8.30;;
80384;SDS011;69702;44.618;33.604;2023-05-10T04:01:17;11.93;;;8.83;;
80384;SDS011;69702;44.618;33.604;2023-05-10T04:03:43;12.82;;;8.73;;
80384;SDS011;69702;44.618;33.604;2023-05-10T04:06:09;15.20;;;8.77;;
80384;SDS011;69702;44.618;33.604;2023-05-10T04:08:37;12.52;;;8.73;;
80384;SDS011;69702;44.618;33.604;2023-05-10T04:11:09;11.90;;;8.57;;
80384;SDS011;69702;44.618;33.604;2023-05-10T04:13:36;14.45;;;9.10;;
80384;SDS011;69702;44.618;33.604;2023-05-10T04:16:02;14.00;;;8.27;;
80384;SDS011;69702;44.618;33.604;2023-05-10T04:18:28;12.98;;;8.55;;
80384;SDS011;69702;44.618;33.604;2023-05-10T04:20:54;12.63;;;8.60;;
80384;SDS011;69702;44.618;33.604;2023-05-10T04:23:20;13.35;;;8.50;;
80384;SDS011;69702;44.618;33.604;2023-05-10T04:25:46;12.40;;;8.13;;
80384;SDS011;69702;44.618;33.604;2023-05-10T04:28:11;13.83;;;9.20;;
80384;SDS011;69702;44.618;33.604;2023-05-10T04:30:38;11.85;;;8.43;;
80384;SDS011;69702;44.618;33.604;2023-05-10T04:33:04;12.93;;;8.45;;
80384;SDS011;69702;44.618;33.604;2023-05-10T04:35:30;14.23;;;9.50;;
80384;SDS011;69702;44.618;33.604;2023-05-10T04:37:55;12.52;;;9.23;;
80384;SDS011;69702;44.618;33.604;2023-05-10T04:40:21;13.30;;;8.50;;
80384;SDS011;69702;44.618;33.604;2023-05-10T04:42:47;12.30;;;8.40;;
80384;SDS011;69702;44.618;33.604;2023-05-10T04:45:13;10.85;;;8.40;;
80384;SDS011;69702;44.618;33.604;2023-05-10T04:47:42;12.20;;;8.07;;
80384;SDS011;69702;44.618;33.604;2023-05-10T04:50:08;12.88;;;8.73;;
80384;SDS011;69702;44.618;33.604;2023-05-10T04:52:34;10.90;;;7.82;;
80384;SDS011;69702;44.618;33.604;2023-05-10T04:55:00;10.95;;;7.30;;
80384;SDS011;69702;44.618;33.604;2023-05-10T04:57:25;12.47;;;7.90;;
80384;SDS011;69702;44.618;33.604;2023-05-10T04:59:51;11.70;;;7.15;;
80384;SDS011;69702;44.618;33.604;2023-05-10T05:02:17;8.57;;;6.68;;
80384;SDS011;69702;44.618;33.604;2023-05-10T05:04:43;10.00;;;6.80;;
80384;SDS011;69702;44.618;33.604;2023-05-10T05:07:09;8.55;;;6.80;;
80384;SDS011;69702;44.618;33.604;2023-05-10T05:09:35;8.52;;;6.20;;
80384;SDS011;69702;44.618;33.604;2023-05-10T05:12:01;9.27;;;6.25;;
80384;SDS011;69702;44.618;33.604;2023-05-10T05:14:27;8.15;;;6.47;;
80384;SDS011;69702;44.618;33.604;2023-05-10T05:16:53;8.70;;;6.68;;
80384;SDS011;69702;44.618;33.604;2023-05-10T05:19:19;8.80;;;7.20;;
80384;SDS011;69702;44.618;33.604;2023-05-10T05:21:45;8.23;;;6.72;;
80384;SDS011;69702;44.618;33.604;2023-05-10T05:24:11;8.65;;;7.10;;
80384;SDS011;69702;44.618;33.604;2023-05-10T05:26:38;8.90;;;6.10;;
80384;SDS011;69702;44.618;33.604;2023-05-10T05:29:04;9.70;;;6.65;;
80384;SDS011;69702;44.618;33.604;2023-05-10T05:31:30;10.32;;;7.47;;
80384;SDS011;69702;44.618;33.604;2023-05-10T05:33:55;9.80;;;7.07;;
80384;SDS011;69702;44.618;33.604;2023-05-10T05:36:21;8.97;;;6.90;;
80384;SDS011;69702;44.618;33.604;2023-05-10T05:38:47;8.77;;;7.10;;
80384;SDS011;69702;44.618;33.604;2023-05-10T05:41:13;8.57;;;6.70;;
80384;SDS011;69702;44.618;33.604;2023-05-10T05:43:39;9.50;;;6.90;;
80384;SDS011;69702;44.618;33.604;2023-05-10T05:46:05;8.75;;;7.13;;
80384;SDS011;69702;44.618;33.604;2023-05-10T05:48:31;8.40;;;7.20;;
80384;SDS011;69702;44.618;33.604;2023-05-10T05:50:57;8.93;;;6.65;;
80384;SDS011;69702;44.618;33.604;2023-05-10T05:53:23;8.75;;;6.80;;
80384;SDS011;69702;44.618;33.604;2023-05-10T05:55:53;7.95;;;6.65;;
80384;SDS011;69702;44.618;33.604;2023-05-10T05:58:20;7.85;;;6.53;;
80384;SDS011;69702;44.618;33.604;2023-05-10T06:00:46;9.32;;;6.93;;
80384;SDS011;69702;44.618;33.604;2023-05-10T06:03:12;9.25;;;6.60;;
80384;SDS011;69702;44.618;33.604;2023-05-10T06:05:38;8.90;;;6.10;;
80384;SDS011;69702;44.618;33.604;2023-05-10T06:08:04;7.10;;;6.40;;
80384;SDS011;69702;44.618;33.604;2023-05-10T06:10:30;6.93;;;5.60;;
80384;SDS011;69702;44.618;33.604;2023-05-10T06:12:56;7.20;;;5.57;;
80384;SDS011;69702;44.618;33.604;2023-05-10T06:15:22;8.03;;;6.70;;
80384;SDS011;69702;44.618;33.604;2023-05-10T06:17:48;7.45;;;5.70;;
80384;SDS011;69702;44.618;33.604;2023-05-10T06:20:15;7.13;;;5.97;;
80384;SDS011;69702;44.618;33.604;2023-05-10T06:22:41;8.05;;;5.60;;
80384;SDS011;69702;44.618;33.604;2023-05-10T06:25:07;7.60;;;5.43;;
80384;SDS011;69702;44.618;33.604;2023-05-10T06:27:33;7.07;;;4.50;;
80384;SDS011;69702;44.618;33.604;2023-05-10T06:29:59;8.30;;;4.55;;
80384;SDS011;69702;44.618;33.604;2023-05-10T06:32:25;6.40;;;4.70;;
80384;SDS011;69702;44.618;33.604;2023-05-10T06:34:51;12.20;;;9.82;;
80384;SDS011;69702;44.618;33.604;2023-05-10T06:37:17;9.23;;;6.13;;
80384;SDS011;69702;44.618;33.604;2023-05-10T06:39:43;14.98;;;11.52;;
80384;SDS011;69702;44.618;33.604;2023-05-10T06:42:09;6.40;;;4.40;;
80384;SDS011;69702;44.618;33.604;2023-05-10T06:44:35;7.13;;;5.50;;
80384;SDS011;69702;44.618;33.604;2023-05-10T06:47:01;7.57;;;6.07;;
80384;SDS011;69702;44.618;33.604;2023-05-10T06:49:26;8.65;;;6.97;;
80384;SDS011;69702;44.618;33.604;2023-05-10T06:51:52;7.25;;;6.30;;
80384;SDS011;69702;44.618;33.604;2023-05-10T06:54:18;8.05;;;6.28;;
80384;SDS011;69702;44.618;33.604;2023-05-10T06:56:44;6.47;;;4.93;;
80384;SDS011;69702;44.618;33.604;2023-05-10T06:59:10;8.00;;;6.40;;
80384;SDS011;69702;44.618;33.604;2023-05-10T07:01:37;8.32;;;5.53;;
80384;SDS011;69702;44.618;33.604;2023-05-10T07:04:03;7.57;;;6.78;;
80384;SDS011;69702;44.618;33.604;2023-05-10T07:06:30;10.87;;;8.33;;
80384;SDS011;69702;44.618;33.604;2023-05-10T07:08:56;8.55;;;7.35;;
80384;SDS011;69702;44.618;33.604;2023-05-10T07:11:22;5.93;;;4.45;;
80384;SDS011;69702;44.618;33.604;2023-05-10T07:13:48;5.85;;;5.25;;
80384;SDS011;69702;44.618;33.604;2023-05-10T07:16:14;6.63;;;5.27;;
80384;SDS011;69702;44.618;33.604;2023-05-10T07:18:40;7.45;;;4.93;;
80384;SDS011;69702;44.618;33.604;2023-05-10T07:21:06;7.97;;;5.25;;
80384;SDS011;69702;44.618;33.604;2023-05-10T07:23:31;8.70;;;7.77;;
80384;SDS011;69702;44.618;33.604;2023-05-10T07:25:57;8.35;;;6.95;;
80384;SDS011;69702;44.618;33.604;2023-05-10T07:28:23;7.55;;;4.55;;
80384;SDS011;69702;44.618;33.604;2023-05-10T07:30:49;7.20;;;5.50;;
80384;SDS011;69702;44.618;33.604;2023-05-10T07:33:15;7.63;;;6.05;;
80384;SDS011;69702;44.618;33.604;2023-05-10T07:35:42;8.10;;;5.80;;
80384;SDS011;69702;44.618;33.604;2023-05-10T07:38:08;7.10;;;4.47;;
80384;SDS011;69702;44.618;33.604;2023-05-10T07:40:34;6.72;;;5.50;;
80384;SDS011;69702;44.618;33.604;2023-05-10T07:42:59;6.00;;;5.40;;
80384;SDS011;69702;44.618;33.604;2023-05-10T07:45:27;8.50;;;6.03;;
80384;SDS011;69702;44.618;33.604;2023-05-10T07:47:53;6.47;;;5.53;;
80384;SDS011;69702;44.618;33.604;2023-05-10T07:50:19;6.70;;;6.00;;
80384;SDS011;69702;44.618;33.604;2023-05-10T07:52:46;8.63;;;5.73;;
80384;SDS011;69702;44.618;33.604;2023-05-10T07:55:13;8.32;;;7.53;;
80384;SDS011;69702;44.618;33.604;2023-05-10T07:57:39;6.70;;;5.85;;
80384;SDS011;69702;44.618;33.604;2023-05-10T08:00:05;8.52;;;6.32;;
80384;SDS011;69702;44.618;33.604;2023-05-10T08:02:38;7.45;;;6.20;;
80384;SDS011;69702;44.618;33.604;2023-05-10T08:05:04;7.33;;;5.63;;
80384;SDS011;69702;44.618;33.604;2023-05-10T08:07:31;6.68;;;5.90;;
80384;SDS011;69702;44.618;33.604;2023-05-10T08:09:56;7.07;;;5.75;;
80384;SDS011;69702;44.618;33.604;2023-05-10T08:12:22;7.20;;;5.57;;
80384;SDS011;69702;44.618;33.604;2023-05-10T08:14:48;9.27;;;6.97;;
80384;SDS011;69702;44.618;33.604;2023-05-10T08:17:14;7.63;;;5.60;;
80384;SDS011;69702;44.618;33.604;2023-05-10T08:19:40;6.47;;;5.13;;
80384;SDS011;69702;44.618;33.604;2023-05-10T08:22:06;5.97;;;5.05;;
80384;SDS011;69702;44.618;33.604;2023-05-10T08:24:32;7.22;;;5.18;;
80384;SDS011;69702;44.618;33.604;2023-05-10T08:26:59;6.70;;;5.67;;
80384;SDS011;69702;44.618;33.604;2023-05-10T08:29:26;6.68;;;5.07;;
80384;SDS011;69702;44.618;33.604;2023-05-10T08:31:51;6.97;;;5.40;;
80384;SDS011;69702;44.618;33.604;2023-05-10T08:34:17;8.80;;;5.20;;
80384;SDS011;69702;44.618;33.604;2023-05-10T08:36:43;6.20;;;5.57;;
80384;SDS011;69702;44.618;33.604;2023-05-10T08:39:09;6.82;;;4.80;;
80384;SDS011;69702;44.618;33.604;2023-05-10T08:41:35;7.40;;;4.47;;
80384;SDS011;69702;44.618;33.604;2023-05-10T08:44:02;6.43;;;4.65;;
80384;SDS011;69702;44.618;33.604;2023-05-10T08:46:29;5.50;;;4.20;;
80384;SDS011;69702;44.618;33.604;2023-05-10T08:48:56;6.78;;;4.35;;
80384;SDS011;69702;44.618;33.604;2023-05-10T08:51:24;5.70;;;4.50;;
80384;SDS011;69702;44.618;33.604;2023-05-10T08:53:53;7.30;;;4.68;;
80384;SDS011;69702;44.618;33.604;2023-05-10T08:56:19;6.95;;;6.25;;
80384;SDS011;69702;44.618;33.604;2023-05-10T08:58:46;6.80;;;5.15;;
80384;SDS011;69702;44.618;33.604;2023-05-10T09:01:12;9.90;;;7.68;;
80384;SDS011;69702;44.618;33.604;2023-05-10T09:03:39;12.03;;;7.47;;
80384;SDS011;69702;44.618;33.604;2023-05-10T09:06:05;7.93;;;6.50;;
80384;SDS011;69702;44.618;33.604;2023-05-10T09:08:32;7.38;;;6.60;;
80384;SDS011;69702;44.618;33.604;2023-05-10T09:10:59;6.95;;;6.07;;
80384;SDS011;69702;44.618;33.604;2023-05-10T09:13:26;6.97;;;5.88;;
80384;SDS011;69702;44.618;33.604;2023-05-10T09:15:52;7.17;;;4.73;;
80384;SDS011;69702;44.618;33.604;2023-05-10T09:18:19;6.35;;;5.35;;
80384;SDS011;69702;44.618;33.604;2023-05-10T09:20:45;6.10;;;4.63;;
80384;SDS011;69702;44.618;33.604;2023-05-10T09:23:11;6.95;;;4.50;;
80384;SDS011;69702;44.618;33.604;2023-05-10T09:25:37;6.30;;;5.13;;
80384;SDS011;69702;44.618;33.604;2023-05-10T09:28:05;7.43;;;4.40;;
80384;SDS011;69702;44.618;33.604;2023-05-10T09:30:33;6.85;;;5.05;;
80384;SDS011;69702;44.618;33.604;2023-05-10T09:32:59;7.68;;;5.35;;
80384;SDS011;69702;44.618;33.604;2023-05-10T09:35:26;7.47;;;5.20;;
80384;SDS011;69702;44.618;33.604;2023-05-10T09:37:54;7.43;;;5.90;;
80384;SDS011;69702;44.618;33.604;2023-05-10T09:40:24;8.05;;;4.45;;
80384;SDS011;69702;44.618;33.604;2023-05-10T09:42:52;6.32;;;4.63;;
80384;SDS011;69702;44.618;33.604;2023-05-10T09:45:26;6.72;;;4.18;;
80384;SDS011;69702;44.618;33.604;2023-05-10T09:47:53;6.47;;;4.40;;
80384;SDS011;69702;44.618;33.604;2023-05-10T09:50:20;7.60;;;4.70;;
80384;SDS011;69702;44.618;33.604;2023-05-10T09:52:50;6.90;;;4.45;;
80384;SDS011;69702;44.618;33.604;2023-05-10T09:55:21;8.18;;;5.28;;
80384;SDS011;69702;44.618;33.604;2023-05-10T09:57:58;9.10;;;4.85;;
80384;SDS011;69702;44.618;33.604;2023-05-10T10:00:26;7.78;;;5.10;;
80384;SDS011;69702;44.618;33.604;2023-05-10T10:02:59;7.37;;;4.90;;
80384;SDS011;69702;44.618;33.604;2023-05-10T10:05:34;6.80;;;4.88;;
80384;SDS011;69702;44.618;33.604;2023-05-10T10:08:03;7.10;;;4.85;;
80384;SDS011;69702;44.618;33.604;2023-05-10T10:10:30;7.13;;;5.47;;
80384;SDS011;69702;44.618;33.604;2023-05-10T10:12:57;7.28;;;5.22;;
80384;SDS011;69702;44.618;33.604;2023-05-10T10:15:23;6.53;;;4.80;;
80384;SDS011;69702;44.618;33.604;2023-05-10T10:17:50;8.23;;;5.00;;
80384;SDS011;69702;44.618;33.604;2023-05-10T10:20:17;7.65;;;5.00;;
80384;SDS011;69702;44.618;33.604;2023-05-10T10:22:44;6.30;;;4.82;;
80384;SDS011;69702;44.618;33.604;2023-05-10T10:25:10;6.70;;;4.82;;
80384;SDS011;69702;44.618;33.604;2023-05-10T10:33:10;6.28;;;4.65;;
80384;SDS011;69702;44.618;33.604;2023-05-10T10:35:38;7.63;;;6.20;;
80384;SDS011;69702;44.618;33.604;2023-05-10T10:38:07;6.00;;;4.45;;
80384;SDS011;69702;44.618;33.604;2023-05-10T10:40:33;7.70;;;4.33;;
80384;SDS011;69702;44.618;33.604;2023-05-10T10:48:37;5.85;;;4.22;;
80384;SDS011;69702;44.618;33.604;2023-05-10T10:51:03;8.10;;;4.33;;
80384;SDS011;69702;44.618;33.604;2023-05-10T10:53:29;5.55;;;4.05;;
80384;SDS011;69702;44.618;33.604;2023-05-10T10:58:51;6.55;;;4.32;;
80384;SDS011;69702;44.618;33.604;2023-05-10T11:01:18;7.47;;;5.47;;
80384;SDS011;69702;44.618;33.604;2023-05-10T11:04:27;7.18;;;5.90;;
80384;SDS011;69702;44.618;33.604;2023-05-10T11:06:42;7.47;;;5.78;;
80384;SDS011;69702;44.618;33.604;2023-05-10T11:09:08;7.20;;;4.80;;
80384;SDS011;69702;44.618;33.604;2023-05-10T11:11:35;6.88;;;5.40;;
80384;SDS011;69702;44.618;33.604;2023-05-10T11:14:05;6.60;;;4.50;;
80384;SDS011;69702;44.618;33.604;2023-05-10T11:16:41;7.18;;;5.38;;
80384;SDS011;69702;44.618;33.604;2023-05-10T11:19:12;7.32;;;6.00;;
80384;SDS011;69702;44.618;33.604;2023-05-10T11:24:15;9.23;;;4.85;;
80384;SDS011;69702;44.618;33.604;2023-05-10T11:26:49;7.80;;;5.20;;
80384;SDS011;69702;44.618;33.604;2023-05-10T11:29:15;7.65;;;6.78;;
80384;SDS011;69702;44.618;33.604;2023-05-10T11:31:42;6.75;;;5.50;;
80384;SDS011;69702;44.618;33.604;2023-05-10T11:34:13;6.40;;;5.13;;
80384;SDS011;69702;44.618;33.604;2023-05-10T11:36:52;6.85;;;5.28;;
80384;SDS011;69702;44.618;33.604;2023-05-10T11:39:20;6.57;;;4.93;;
80384;SDS011;69702;44.618;33.604;2023-05-10T11:41:47;8.32;;;5.57;;
80384;SDS011;69702;44.618;33.604;2023-05-10T11:44:14;7.45;;;6.22;;
80384;SDS011;69702;44.618;33.604;2023-05-10T11:46:40;8.57;;;6.30;;
80384;SDS011;69702;44.618;33.604;2023-05-10T11:49:06;8.60;;;5.10;;
80384;SDS011;69702;44.618;33.604;2023-05-10T11:51:33;8.00;;;5.30;;
80384;SDS011;69702;44.618;33.604;2023-05-10T11:54:02;6.85;;;5.55;;
80384;SDS011;69702;44.618;33.604;2023-05-10T11:56:32;8.13;;;5.65;;
80384;SDS011;69702;44.618;33.604;2023-05-10T11:58:58;8.48;;;6.28;;
80384;SDS011;69702;44.618;33.604;2023-05-10T12:01:26;6.87;;;5.20;;
80384;SDS011;69702;44.618;33.604;2023-05-10T12:03:52;6.20;;;5.20;;
80384;SDS011;69702;44.618;33.604;2023-05-10T12:06:19;7.32;;;5.30;;
80384;SDS011;69702;44.618;33.604;2023-05-10T12:08:47;6.38;;;4.88;;
80384;SDS011;69702;44.618;33.604;2023-05-10T12:11:13;6.72;;;5.00;;
80384;SDS011;69702;44.618;33.604;2023-05-10T12:13:41;7.50;;;4.80;;
80384;SDS011;69702;44.618;33.604;2023-05-10T12:16:17;7.95;;;5.10;;
80384;SDS011;69702;44.618;33.604;2023-05-10T12:18:44;6.32;;;4.97;;
80384;SDS011;69702;44.618;33.604;2023-05-10T12:21:11;7.05;;;5.05;;
80384;SDS011;69702;44.618;33.604;2023-05-10T12:23:38;6.72;;;4.90;;
80384;SDS011;69702;44.618;33.604;2023-05-10T12:26:04;6.17;;;4.90;;
80384;SDS011;69702;44.618;33.604;2023-05-10T12:28:31;7.47;;;5.10;;
80384;SDS011;69702;44.618;33.604;2023-05-10T12:30:58;9.30;;;4.72;;
80384;SDS011;69702;44.618;33.604;2023-05-10T12:33:25;9.35;;;4.53;;
80384;SDS011;69702;44.618;33.604;2023-05-10T12:35:52;6.38;;;4.30;;
80384;SDS011;69702;44.618;33.604;2023-05-10T12:41:04;6.47;;;4.57;;
80384;SDS011;69702;44.618;33.604;2023-05-10T12:43:32;6.15;;;4.68;;
80384;SDS011;69702;44.618;33.604;2023-05-10T12:45:58;8.48;;;4.65;;
80384;SDS011;69702;44.618;33.604;2023-05-10T12:48:24;8.13;;;4.68;;
80384;SDS011;69702;44.618;33.604;2023-05-10T12:50:50;8.47;;;4.43;;
80384;SDS011;69702;44.618;33.604;2023-05-10T12:53:17;5.97;;;4.72;;
80384;SDS011;69702;44.618;33.604;2023-05-10T12:55:43;8.05;;;4.65;;
80384;SDS011;69702;44.618;33.604;2023-05-10T12:58:09;8.65;;;4.10;;
80384;SDS011;69702;44.618;33.604;2023-05-10T13:00:35;8.30;;;4.33;;
80384;SDS011;69702;44.618;33.604;2023-05-10T13:03:03;6.82;;;4.10;;
80384;SDS011;69702;44.618;33.604;2023-05-10T13:05:33;7.43;;;4.30;;
80384;SDS011;69702;44.618;33.604;2023-05-10T13:07:58;5.95;;;3.65;;
80384;SDS011;69702;44.618;33.604;2023-05-10T13:10:24;8.43;;;4.00;;
80384;SDS011;69702;44.618;33.604;2023-05-10T13:12:51;6.88;;;4.15;;
80384;SDS011;69702;44.618;33.604;2023-05-10T13:15:17;7.70;;;4.15;;
80384;SDS011;69702;44.618;33.604;2023-05-10T13:17:42;6.35;;;3.80;;
80384;SDS011;69702;44.618;33.604;2023-05-10T13:20:09;7.00;;;4.43;;
80384;SDS011;69702;44.618;33.604;2023-05-10T13:22:35;8.13;;;4.32;;
80384;SDS011;69702;44.618;33.604;2023-05-10T13:25:01;7.78;;;3.78;;
80384;SDS011;69702;44.618;33.604;2023-05-10T13:27:28;6.90;;;4.40;;
80384;SDS011;69702;44.618;33.604;2023-05-10T13:29:54;8.63;;;4.67;;
80384;SDS011;69702;44.618;33.604;2023-05-10T13:32:20;9.23;;;5.38;;
80384;SDS011;69702;44.618;33.604;2023-05-10T13:34:46;6.15;;;4.32;;
80384;SDS011;69702;44.618;33.604;2023-05-10T13:37:12;6.95;;;4.85;;
80384;SDS011;69702;44.618;33.604;2023-05-10T13:39:38;6.00;;;3.87;;
80384;SDS011;69702;44.618;33.604;2023-05-10T13:42:04;6.28;;;3.95;;
80384;SDS011;69702;44.618;33.604;2023-05-10T13:44:30;7.85;;;4.70;;
80384;SDS011;69702;44.618;33.604;2023-05-10T13:46:59;8.93;;;6.90;;
80384;SDS011;69702;44.618;33.604;2023-05-10T13:49:25;6.43;;;3.58;;
80384;SDS011;69702;44.618;33.604;2023-05-10T13:51:51;7.55;;;4.18;;
80384;SDS011;69702;44.618;33.604;2023-05-10T13:54:17;5.38;;;3.20;;
80384;SDS011;69702;44.618;33.604;2023-05-10T13:56:45;7.95;;;4.35;;
80384;SDS011;69702;44.618;33.604;2023-05-10T13:59:13;11.43;;;7.27;;
80384;SDS011;69702;44.618;33.604;2023-05-10T14:01:42;7.55;;;4.13;;
80384;SDS011;69702;44.618;33.604;2023-05-10T14:04:10;8.18;;;4.65;;
80384;SDS011;69702;44.618;33.604;2023-05-10T14:06:37;5.68;;;3.40;;
80384;SDS011;69702;44.618;33.604;2023-05-10T14:09:03;6.67;;;3.87;;
80384;SDS011;69702;44.618;33.604;2023-05-10T14:11:29;11.43;;;6.90;;
80384;SDS011;69702;44.618;33.604;2023-05-10T14:13:55;9.02;;;6.00;;
80384;SDS011;69702;44.618;33.604;2023-05-10T14:16:21;6.65;;;4.03;;
80384;SDS011;69702;44.618;33.604;2023-05-10T14:18:47;7.72;;;4.63;;
80384;SDS011;69702;44.618;33.604;2023-05-10T14:21:12;6.17;;;3.93;;
80384;SDS011;69702;44.618;33.604;2023-05-10T14:23:39;7.03;;;4.78;;
80384;SDS011;69702;44.618;33.604;2023-05-10T14:26:05;6.75;;;3.50;;
80384;SDS011;69702;44.618;33.604;2023-05-10T14:28:31;8.30;;;4.38;;
80384;SDS011;69702;44.618;33.604;2023-05-10T14:30:58;6.60;;;4.20;;
80384;SDS011;69702;44.618;33.604;2023-05-10T14:33:24;7.75;;;3.70;;
80384;SDS011;69702;44.618;33.604;2023-05-10T14:35:50;6.25;;;4.22;;
80384;SDS011;69702;44.618;33.604;2023-05-10T14:38:16;7.80;;;4.38;;
80384;SDS011;69702;44.618;33.604;2023-05-10T14:40:42;8.30;;;4.90;;
80384;SDS011;69702;44.618;33.604;2023-05-10T14:43:11;9.07;;;5.78;;
80384;SDS011;69702;44.618;33.604;2023-05-10T14:45:37;7.80;;;4.38;;
80384;SDS011;69702;44.618;33.604;2023-05-10T14:48:03;9.80;;;5.05;;
80384;SDS011;69702;44.618;33.604;2023-05-10T14:50:31;10.68;;;4.50;;
80384;SDS011;69702;44.618;33.604;2023-05-10T14:56:02;9.83;;;4.87;;
80384;SDS011;69702;44.618;33.604;2023-05-10T14:58:28;7.32;;;5.00;;
80384;SDS011;69702;44.618;33.604;2023-05-10T15:00:55;10.35;;;7.07;;
80384;SDS011;69702;44.618;33.604;2023-05-10T15:03:22;6.80;;;4.20;;
80384;SDS011;69702;44.618;33.604;2023-05-10T15:05:48;7.13;;;5.25;;
80384;SDS011;69702;44.618;33.604;2023-05-10T15:08:14;6.50;;;4.27;;
80384;SDS011;69702;44.618;33.604;2023-05-10T15:10:40;10.98;;;5.18;;
80384;SDS011;69702;44.618;33.604;2023-05-10T15:13:06;10.88;;;5.65;;
80384;SDS011;69702;44.618;33.604;2023-05-10T15:15:32;12.48;;;7.28;;
80384;SDS011;69702;44.618;33.604;2023-05-10T15:17:58;8.88;;;4.93;;